Time;durP1;ratioP1;P1;durP2;ratioP2;P2;SDS_P1;SDS_P2;PMS_P1;PMS_P2;Temp;Humidity;BMP_temperature;BMP_pressure;BME280_temperature;BME280_humidity;BME280_pressure;Samples;Min_cycle;Max_cycle;Signal;HPM_P1;HPM_P2
2023/05/15 00:01:22;;;;;;;2.30;2.10;;;9.30;99.90;;;;;;5109068;28;20666;-69
2023/05/15 00:03:48;;;;;;;2.60;1.93;;;9.40;99.90;;;;;;5110411;28;20613;-69
2023/05/15 00:06:15;;;;;;;2.97;2.30;;;9.30;99.90;;;;;;5110090;28;20652;-69
2023/05/15 00:08:42;;;;;;;4.40;2.40;;;9.30;99.90;;;;;;5110287;28;20631;-69
2023/05/15 00:11:10;;;;;;;2.70;2.30;;;9.40;99.90;;;;;;5109024;28;20649;-70
2023/05/15 00:13:37;;;;;;;3.30;3.00;;;9.30;99.90;;;;;;5110164;28;20639;-69
2023/05/15 00:16:04;;;;;;;1.60;1.50;;;9.20;99.90;;;;;;5109363;28;21043;-71
2023/05/15 00:18:32;;;;;;;2.30;2.10;;;9.20;99.90;;;;;;5110252;28;20623;-69
2023/05/15 00:20:59;;;;;;;2.40;2.10;;;9.20;99.90;;;;;;5108968;28;21043;-70
2023/05/15 00:23:26;;;;;;;1.57;1.47;;;9.20;99.90;;;;;;5110051;28;20630;-69
2023/05/15 00:25:52;;;;;;;2.70;2.23;;;9.20;99.90;;;;;;5109622;28;21007;-69
2023/05/15 00:28:20;;;;;;;3.00;2.07;;;9.20;99.90;;;;;;5109548;28;20754;-69
2023/05/15 00:30:47;;;;;;;2.53;1.90;;;9.30;99.90;;;;;;5108653;28;20662;-69
2023/05/15 00:33:14;;;;;;;2.70;1.97;;;9.30;99.90;;;;;;5101388;28;20627;-69
2023/05/15 00:35:41;;;;;;;2.77;2.50;;;9.40;99.90;;;;;;5109321;28;20686;-69
2023/05/15 00:38:08;;;;;;;2.10;1.83;;;9.40;99.90;;;;;;5109299;28;20626;-69
2023/05/15 00:40:36;;;;;;;1.60;1.50;;;9.40;99.90;;;;;;5108395;28;20656;-70
2023/05/15 00:43:04;;;;;;;3.30;3.00;;;9.40;99.90;;;;;;5106472;28;20717;-69
2023/05/15 00:45:33;;;;;;;1.70;1.60;;;9.40;99.90;;;;;;5109380;28;20644;-69
2023/05/15 00:48:01;;;;;;;2.03;1.90;;;9.50;99.90;;;;;;5109720;28;21000;-70
2023/05/15 00:50:29;;;;;;;1.57;1.47;;;9.60;99.90;;;;;;5107804;28;20640;-70
2023/05/15 00:52:55;;;;;;;2.37;1.90;;;9.70;99.90;;;;;;5109418;28;20641;-70
2023/05/15 00:55:22;;;;;;;2.73;1.73;;;9.70;99.90;;;;;;5108854;28;20623;-70
2023/05/15 00:57:50;;;;;;;2.90;2.00;;;9.80;99.90;;;;;;5109152;28;20634;-70
2023/05/15 01:00:19;;;;;;;2.77;2.53;;;9.80;99.90;;;;;;5108378;28;20639;-69
2023/05/15 01:02:47;;;;;;;2.20;1.67;;;9.80;99.90;;;;;;5109153;28;20997;-70
2023/05/15 01:05:14;;;;;;;1.77;1.67;;;9.80;99.90;;;;;;5108273;28;21208;-69
2023/05/15 01:07:48;;;;;;;2.33;1.60;;;9.80;99.90;;;;;;5108121;28;20627;-69
2023/05/15 01:10:17;;;;;;;1.93;1.83;;;9.70;99.90;;;;;;5107475;28;20621;-69
2023/05/15 01:12:47;;;;;;;1.73;1.63;;;9.60;99.90;;;;;;5109132;28;20627;-69
2023/05/15 01:15:15;;;;;;;2.27;2.07;;;9.60;99.90;;;;;;5108745;28;20634;-70
2023/05/15 01:17:42;;;;;;;2.10;2.00;;;9.70;99.90;;;;;;5108960;28;21048;-70
2023/05/15 01:20:13;;;;;;;1.60;1.17;;;9.60;99.90;;;;;;5108315;28;20668;-70
2023/05/15 01:23:04;;;;;;;2.93;2.10;;;9.60;99.90;;;;;;5108460;28;20654;-69
2023/05/15 01:25:52;;;;;;;1.50;1.27;;;9.60;99.90;;;;;;5108790;27;20680;-70
2023/05/15 01:28:26;;;;;;;1.50;1.40;;;9.60;99.90;;;;;;5102060;28;21212;-69
2023/05/15 01:30:55;;;;;;;2.97;2.40;;;9.60;99.90;;;;;;5107418;28;20651;-70
2023/05/15 01:33:27;;;;;;;2.13;2.03;;;9.70;99.90;;;;;;5108440;28;20629;-69
2023/05/15 01:35:59;;;;;;;2.20;2.00;;;9.60;99.90;;;;;;5108497;28;20734;-70
2023/05/15 01:38:33;;;;;;;1.67;1.47;;;9.60;99.90;;;;;;5108756;28;20617;-69
2023/05/15 01:41:05;;;;;;;3.03;1.43;;;9.60;99.90;;;;;;5107915;28;20629;-69
2023/05/15 01:43:38;;;;;;;1.87;1.30;;;9.60;99.90;;;;;;5108072;28;20626;-70
2023/05/15 01:46:07;;;;;;;3.10;2.53;;;9.60;99.90;;;;;;5107751;28;21201;-70
2023/05/15 01:48:36;;;;;;;2.80;2.23;;;9.60;99.90;;;;;;5108193;28;21188;-69
2023/05/15 01:51:06;;;;;;;1.90;1.70;;;9.60;99.90;;;;;;5106779;28;20639;-69
2023/05/15 01:53:35;;;;;;;2.10;1.90;;;9.60;99.90;;;;;;5099860;28;20660;-70
2023/05/15 01:56:08;;;;;;;1.90;1.60;;;9.60;99.90;;;;;;5108150;28;21226;-69
2023/05/15 01:58:40;;;;;;;2.40;2.20;;;9.60;99.90;;;;;;5107948;28;21361;-69
2023/05/15 02:01:09;;;;;;;2.17;1.80;;;9.60;99.90;;;;;;5107519;28;20637;-70
2023/05/15 02:03:36;;;;;;;1.80;1.50;;;9.60;99.90;;;;;;5108101;28;21190;-69
2023/05/15 02:06:06;;;;;;;4.37;1.73;;;9.60;99.90;;;;;;5108536;28;21590;-69
2023/05/15 02:08:35;;;;;;;1.80;1.70;;;9.60;99.90;;;;;;5107669;28;20681;-69
2023/05/15 02:11:04;;;;;;;1.13;1.03;;;9.60;99.90;;;;;;5107202;28;20649;-69
2023/05/15 02:13:32;;;;;;;1.43;1.43;;;9.70;99.90;;;;;;5108125;28;21188;-69
2023/05/15 02:16:02;;;;;;;2.07;1.87;;;9.70;99.90;;;;;;5108166;28;20651;-70
2023/05/15 02:18:29;;;;;;;2.40;2.10;;;9.70;99.90;;;;;;5107957;28;20627;-69
2023/05/15 02:20:56;;;;;;;1.47;0.97;;;9.70;99.90;;;;;;5107177;28;20659;-70
2023/05/15 02:23:22;;;;;;;1.50;1.40;;;9.80;99.90;;;;;;5107605;28;20986;-70
2023/05/15 02:26:04;;;;;;;2.43;2.00;;;9.80;99.90;;;;;;5107893;28;20638;-70
2023/05/15 02:28:38;;;;;;;2.17;2.07;;;9.80;99.90;;;;;;5108074;28;21097;-70
2023/05/15 02:31:14;;;;;;;2.07;1.87;;;9.80;99.90;;;;;;5107070;28;21217;-70
2023/05/15 02:33:50;;;;;;;2.10;2.00;;;9.70;99.90;;;;;;5107692;28;20627;-69
2023/05/15 02:36:23;;;;;;;3.70;2.00;;;9.70;99.90;;;;;;5099885;28;20655;-69
2023/05/15 02:38:53;;;;;;;4.23;2.30;;;9.70;99.90;;;;;;5108076;28;20640;-69
2023/05/15 02:41:21;;;;;;;2.13;1.60;;;9.70;99.90;;;;;;5098279;28;20657;-69
2023/05/15 02:43:51;;;;;;;2.10;1.70;;;9.70;99.90;;;;;;5108187;28;20755;-69
2023/05/15 02:46:23;;;;;;;2.30;2.20;;;9.70;99.90;;;;;;5107609;28;20703;-69
2023/05/15 02:48:51;;;;;;;2.00;1.50;;;9.70;99.90;;;;;;5108010;28;21200;-70
2023/05/15 02:51:19;;;;;;;1.47;1.37;;;9.70;99.90;;;;;;5105403;28;20648;-70
2023/05/15 02:53:46;;;;;;;1.90;1.53;;;9.70;99.90;;;;;;5107924;28;20617;-69
2023/05/15 02:56:13;;;;;;;1.27;1.17;;;9.80;99.90;;;;;;5107267;28;20686;-70
2023/05/15 02:58:41;;;;;;;2.60;2.40;;;9.80;99.90;;;;;;5110086;28;20986;-69
2023/05/15 03:01:08;;;;;;;2.70;2.50;;;9.90;99.90;;;;;;5110740;28;20646;-71
2023/05/15 03:03:37;;;;;;;2.00;1.80;;;9.80;99.90;;;;;;5111632;28;20708;-69
2023/05/15 03:06:04;;;;;;;2.10;1.87;;;9.80;99.90;;;;;;5111225;28;20641;-69
2023/05/15 03:08:32;;;;;;;2.53;1.10;;;9.70;99.90;;;;;;5111442;28;20624;-69
2023/05/15 03:10:59;;;;;;;1.70;1.60;;;9.70;99.90;;;;;;5110576;28;21019;-69
2023/05/15 03:13:27;;;;;;;2.30;2.10;;;9.70;99.90;;;;;;5110901;28;20628;-70
2023/05/15 03:15:53;;;;;;;1.53;1.33;;;9.70;99.90;;;;;;5111338;28;21039;-70
2023/05/15 03:18:20;;;;;;;2.87;2.63;;;9.80;99.90;;;;;;5111042;28;20618;-69
2023/05/15 03:20:52;;;;;;;2.30;1.60;;;9.80;99.90;;;;;;5110491;28;20640;-70
2023/05/15 03:23:19;;;;;;;2.00;1.90;;;9.80;99.90;;;;;;5111019;28;20656;-69
2023/05/15 03:25:46;;;;;;;1.80;1.50;;;9.80;99.90;;;;;;5110600;28;20647;-69
2023/05/15 03:28:13;;;;;;;2.40;2.03;;;9.80;99.90;;;;;;5111060;28;20626;-69
2023/05/15 03:30:43;;;;;;;3.07;2.27;;;9.80;99.90;;;;;;5109950;28;20731;-69
2023/05/15 03:33:11;;;;;;;2.27;1.87;;;9.90;99.90;;;;;;5102299;28;20936;-69
2023/05/15 03:35:38;;;;;;;2.23;1.97;;;9.90;99.90;;;;;;5110794;27;20664;-70
2023/05/15 03:38:07;;;;;;;2.93;2.43;;;10.00;99.90;;;;;;5110518;28;20626;-69
2023/05/15 03:40:33;;;;;;;1.37;1.27;;;9.90;99.90;;;;;;5110139;28;21212;-70
2023/05/15 03:43:00;;;;;;;2.30;1.63;;;9.90;99.90;;;;;;5110679;28;21223;-70
2023/05/15 03:45:27;;;;;;;2.00;1.70;;;10.00;99.90;;;;;;5110346;28;20694;-71
2023/05/15 03:47:54;;;;;;;2.03;1.83;;;10.00;99.90;;;;;;5110724;28;20724;-70
2023/05/15 03:50:21;;;;;;;1.53;1.40;;;10.10;99.90;;;;;;5108165;28;20653;-70
2023/05/15 03:52:47;;;;;;;1.93;1.40;;;10.00;99.90;;;;;;5110304;28;20659;-69
2023/05/15 03:55:16;;;;;;;2.10;1.90;;;10.00;99.90;;;;;;5110100;28;20926;-69
2023/05/15 03:57:43;;;;;;;2.07;1.37;;;10.00;99.90;;;;;;5110546;28;20657;-70
2023/05/15 04:00:10;;;;;;;2.27;2.13;;;10.00;99.90;;;;;;5109249;28;20627;-69
2023/05/15 04:02:38;;;;;;;3.13;1.83;;;10.10;99.90;;;;;;5110202;28;20649;-69
2023/05/15 04:05:05;;;;;;;2.03;1.83;;;10.10;99.90;;;;;;5109953;28;20726;-69
2023/05/15 04:07:34;;;;;;;4.73;1.90;;;10.10;99.90;;;;;;5110517;27;20627;-69
2023/05/15 04:10:01;;;;;;;1.97;1.77;;;10.20;99.90;;;;;;5108682;28;20710;-69
2023/05/15 04:12:29;;;;;;;1.60;1.50;;;10.20;99.90;;;;;;5110122;28;20990;-69
2023/05/15 04:14:59;;;;;;;2.67;1.87;;;10.20;99.90;;;;;;5102061;28;20722;-69
2023/05/15 04:17:25;;;;;;;1.80;1.70;;;10.30;99.90;;;;;;5109745;28;21086;-69
2023/05/15 04:19:52;;;;;;;2.93;2.30;;;10.30;99.90;;;;;;5108974;28;20618;-69
2023/05/15 04:22:19;;;;;;;1.97;1.77;;;10.30;99.90;;;;;;5109669;28;20669;-69
2023/05/15 04:24:46;;;;;;;2.37;2.17;;;10.30;99.90;;;;;;5109877;28;20623;-69
2023/05/15 04:27:12;;;;;;;2.40;2.20;;;10.40;99.90;;;;;;5109687;28;20642;-69
2023/05/15 04:29:41;;;;;;;1.97;1.87;;;10.40;99.90;;;;;;5109301;28;21017;-69
2023/05/15 04:32:07;;;;;;;1.70;1.57;;;10.50;99.90;;;;;;5109870;28;20713;-69
2023/05/15 04:34:34;;;;;;;2.40;1.93;;;10.50;99.90;;;;;;5109345;28;20621;-70
2023/05/15 04:37:01;;;;;;;2.67;2.47;;;10.60;99.90;;;;;;5109489;28;20645;-69
2023/05/15 04:39:28;;;;;;;6.20;2.67;;;10.70;99.90;;;;;;5109138;28;20626;-69
2023/05/15 04:41:55;;;;;;;2.23;2.13;;;10.70;99.90;;;;;;5109199;28;20745;-69
2023/05/15 04:44:21;;;;;;;2.30;2.10;;;10.80;99.90;;;;;;5109318;28;20624;-70
2023/05/15 04:46:49;;;;;;;4.23;2.43;;;10.80;99.90;;;;;;5109500;28;20648;-69
2023/05/15 04:49:16;;;;;;;2.70;2.50;;;10.90;99.90;;;;;;5109205;28;20623;-69
2023/05/15 04:51:43;;;;;;;2.67;2.47;;;10.90;99.90;;;;;;5109268;28;20650;-69
2023/05/15 04:54:10;;;;;;;3.70;2.40;;;11.00;99.90;;;;;;5109391;28;20629;-69
2023/05/15 04:56:36;;;;;;;1.90;1.80;;;11.00;99.90;;;;;;5100707;28;20657;-70
2023/05/15 04:59:03;;;;;;;2.97;2.53;;;11.20;99.90;;;;;;5108956;28;20708;-69
2023/05/15 05:01:30;;;;;;;2.70;2.30;;;11.20;99.90;;;;;;5108015;28;20657;-71
2023/05/15 05:03:58;;;;;;;3.80;2.50;;;11.30;99.90;;;;;;5109082;28;21225;-70
2023/05/15 05:06:25;;;;;;;3.60;2.57;;;11.30;99.90;;;;;;5109063;28;20677;-69
2023/05/15 05:08:52;;;;;;;1.80;1.70;;;11.40;99.90;;;;;;5109148;28;20982;-70
2023/05/15 05:11:18;;;;;;;3.27;3.00;;;11.50;99.90;;;;;;5108012;28;21382;-70
2023/05/15 05:13:45;;;;;;;4.40;3.00;;;11.60;99.90;;;;;;5108726;28;20997;-70
2023/05/15 05:16:12;;;;;;;3.23;2.87;;;11.60;99.90;;;;;;5108430;28;20646;-69
2023/05/15 05:18:39;;;;;;;2.37;2.27;;;11.50;99.90;;;;;;5109097;28;20665;-70
2023/05/15 05:21:07;;;;;;;4.60;3.07;;;11.60;99.90;;;;;;5107909;28;20687;-70
2023/05/15 05:23:34;;;;;;;3.00;2.33;;;11.60;99.90;;;;;;5108869;28;20795;-69
2023/05/15 05:26:01;;;;;;;3.10;2.80;;;11.70;99.90;;;;;;5108456;28;20704;-69
2023/05/15 05:28:28;;;;;;;2.37;2.27;;;11.70;99.90;;;;;;5108600;28;20723;-70
2023/05/15 05:30:54;;;;;;;3.13;2.17;;;11.70;99.90;;;;;;5107560;28;20646;-70
2023/05/15 05:33:21;;;;;;;2.80;2.60;;;11.80;99.90;;;;;;5108743;28;20657;-70
2023/05/15 05:35:48;;;;;;;3.57;3.00;;;11.90;99.90;;;;;;5108231;28;20649;-70
2023/05/15 05:38:16;;;;;;;4.03;3.43;;;11.90;99.90;;;;;;5108883;28;20627;-69
2023/05/15 05:40:43;;;;;;;3.23;2.40;;;12.10;99.90;;;;;;5107404;28;20653;-69
2023/05/15 05:43:10;;;;;;;5.10;2.53;;;12.00;99.90;;;;;;5107886;28;20741;-70
2023/05/15 05:45:36;;;;;;;4.23;3.53;;;12.10;99.90;;;;;;5108290;28;20761;-70
2023/05/15 05:48:03;;;;;;;2.57;2.37;;;12.00;99.90;;;;;;5108421;28;20628;-70
2023/05/15 05:50:30;;;;;;;4.13;2.67;;;12.00;99.90;;;;;;5106415;28;20648;-69
2023/05/15 05:52:57;;;;;;;3.20;2.90;;;12.00;99.90;;;;;;5108327;28;20624;-69
2023/05/15 05:55:25;;;;;;;7.87;3.37;;;12.10;99.90;;;;;;5107995;28;20650;-70
2023/05/15 05:57:52;;;;;;;2.77;2.57;;;12.10;99.90;;;;;;5107866;28;20629;-69
2023/05/15 06:00:20;;;;;;;3.40;2.87;;;12.10;99.90;;;;;;5107274;28;21238;-69
2023/05/15 06:02:47;;;;;;;2.80;2.50;;;12.20;99.90;;;;;;5108066;28;20644;-69
2023/05/15 06:05:14;;;;;;;3.63;2.90;;;12.20;99.90;;;;;;5108086;28;20653;-70
2023/05/15 06:07:41;;;;;;;4.40;2.70;;;12.30;99.90;;;;;;5107972;28;20676;-70
2023/05/15 06:10:09;;;;;;;3.20;2.90;;;12.30;99.90;;;;;;5107248;28;20626;-70
2023/05/15 06:12:37;;;;;;;3.07;2.60;;;12.50;99.90;;;;;;5107871;28;21189;-69
2023/05/15 06:15:05;;;;;;;5.40;3.23;;;12.60;99.90;;;;;;5108063;28;21169;-70
2023/05/15 06:17:31;;;;;;;4.90;3.00;;;12.60;99.90;;;;;;5107823;28;21187;-70
2023/05/15 06:19:58;;;;;;;3.53;3.23;;;12.60;99.90;;;;;;5107296;28;21200;-70
2023/05/15 06:22:25;;;;;;;3.27;2.97;;;12.70;99.90;;;;;;5107902;28;21017;-69
2023/05/15 06:24:52;;;;;;;5.13;3.70;;;12.70;99.90;;;;;;5107655;28;20710;-69
2023/05/15 06:27:19;;;;;;;4.27;2.50;;;12.70;99.90;;;;;;5107939;28;21139;-71
2023/05/15 06:29:47;;;;;;;2.73;2.53;;;12.70;99.90;;;;;;5107262;28;20623;-69
2023/05/15 06:32:13;;;;;;;3.77;3.40;;;12.90;99.90;;;;;;5099936;28;20672;-70
2023/05/15 06:34:40;;;;;;;5.07;3.37;;;13.00;99.90;;;;;;5112251;28;20623;-69
2023/05/15 06:37:07;;;;;;;4.97;3.10;;;13.10;99.90;;;;;;5111757;28;20653;-69
2023/05/15 06:39:34;;;;;;;2.90;2.50;;;13.10;99.90;;;;;;5111374;28;20622;-70
2023/05/15 06:42:00;;;;;;;4.80;3.23;;;13.20;99.90;;;;;;5111365;28;20690;-69
2023/05/15 06:44:27;;;;;;;4.03;2.80;;;13.20;99.90;;;;;;5111872;27;20654;-70
2023/05/15 06:46:55;;;;;;;3.17;2.80;;;13.20;99.90;;;;;;5111768;28;21325;-70
2023/05/15 06:49:23;;;;;;;3.83;3.53;;;13.30;99.90;;;;;;5109729;28;20634;-69
2023/05/15 06:51:50;;;;;;;3.90;2.30;;;13.40;99.90;;;;;;5111513;28;21255;-70
2023/05/15 06:54:17;;;;;;;3.20;2.47;;;13.50;99.90;;;;;;5111932;28;20616;-70
2023/05/15 06:56:44;;;;;;;2.27;2.07;;;13.60;99.90;;;;;;5111208;28;20644;-70
2023/05/15 06:59:11;;;;;;;4.80;3.27;;;13.70;99.90;;;;;;5111842;28;20635;-70
2023/05/15 07:01:37;;;;;;;3.53;3.23;;;13.80;99.90;;;;;;5110489;28;20653;-69
2023/05/15 07:04:06;;;;;;;4.63;3.23;;;13.80;99.90;;;;;;5111199;28;21237;-69
2023/05/15 07:06:33;;;;;;;4.27;3.63;;;13.80;99.90;;;;;;5111291;28;20764;-70
2023/05/15 07:09:00;;;;;;;3.23;2.27;;;13.90;99.90;;;;;;5111853;28;20616;-69
2023/05/15 07:11:28;;;;;;;2.77;2.57;;;14.00;99.90;;;;;;5110449;28;20650;-69
2023/05/15 07:13:54;;;;;;;7.40;2.90;;;14.10;99.90;;;;;;5103298;28;20615;-69
2023/05/15 07:16:21;;;;;;;2.60;2.40;;;14.20;99.90;;;;;;5110771;27;21339;-69
2023/05/15 07:18:48;;;;;;;3.70;2.80;;;14.00;99.90;;;;;;5111199;28;20998;-69
2023/05/15 07:21:16;;;;;;;2.80;2.30;;;14.00;99.90;;;;;;5110228;27;20695;-69
2023/05/15 07:23:43;;;;;;;2.90;2.57;;;14.10;99.90;;;;;;5111137;27;20724;-69
2023/05/15 07:26:10;;;;;;;2.57;2.37;;;14.10;99.90;;;;;;5111124;28;20647;-69
2023/05/15 07:28:36;;;;;;;3.83;2.23;;;14.20;99.90;;;;;;5111126;28;20637;-70
2023/05/15 07:31:03;;;;;;;2.87;2.17;;;14.30;99.90;;;;;;5110009;28;20666;-69
2023/05/15 07:33:30;;;;;;;2.20;1.87;;;14.30;99.90;;;;;;5111290;28;20622;-70
2023/05/15 07:35:57;;;;;;;3.03;2.27;;;14.10;99.90;;;;;;5110369;28;20646;-69
2023/05/15 07:38:25;;;;;;;3.10;1.97;;;14.20;99.90;;;;;;5110937;27;20640;-69
2023/05/15 07:40:52;;;;;;;1.80;1.70;;;14.30;99.90;;;;;;5110140;28;21011;-70
2023/05/15 07:43:19;;;;;;;2.50;1.90;;;14.40;99.90;;;;;;5110283;28;20659;-70
2023/05/15 07:45:46;;;;;;;3.17;2.50;;;14.60;99.90;;;;;;5109757;28;20647;-70
2023/05/15 07:48:17;;;;;;;1.43;1.30;;;14.70;99.90;;;;;;5110083;28;20625;-69
2023/05/15 07:50:45;;;;;;;2.33;1.60;;;14.80;99.50;;;;;;5108463;28;20967;-69
2023/05/15 07:53:12;;;;;;;1.97;1.87;;;14.90;99.00;;;;;;5110713;28;20613;-69
2023/05/15 07:55:41;;;;;;;2.23;2.00;;;15.10;98.20;;;;;;5110432;28;20640;-69
2023/05/15 07:58:08;;;;;;;2.00;1.67;;;15.20;99.20;;;;;;5110431;28;20624;-69
2023/05/15 08:00:35;;;;;;;1.80;1.70;;;15.50;98.70;;;;;;5109317;28;20645;-70
2023/05/15 08:03:02;;;;;;;2.30;2.10;;;15.60;97.90;;;;;;5110456;28;20621;-69
2023/05/15 08:05:29;;;;;;;1.60;1.50;;;15.60;97.00;;;;;;5110226;28;21000;-69
2023/05/15 08:07:56;;;;;;;1.50;1.33;;;16.00;97.50;;;;;;5110387;28;20671;-70
2023/05/15 08:10:22;;;;;;;2.20;2.00;;;15.90;97.20;;;;;;5109424;28;20629;-69
2023/05/15 08:12:51;;;;;;;2.90;1.70;;;16.10;97.60;;;;;;5110101;28;20619;-69
2023/05/15 08:15:18;;;;;;;2.67;1.90;;;16.50;96.00;;;;;;5109573;28;21189;-69
2023/05/15 08:17:44;;;;;;;2.53;2.27;;;16.20;95.70;;;;;;5110219;28;20661;-70
2023/05/15 08:20:12;;;;;;;2.13;1.93;;;16.20;95.60;;;;;;5109213;27;20629;-69
2023/05/15 08:22:39;;;;;;;2.70;2.50;;;16.20;95.70;;;;;;5109954;28;20632;-69
2023/05/15 08:25:07;;;;;;;1.90;1.67;;;16.30;94.50;;;;;;5109749;28;20732;-70
2023/05/15 08:27:34;;;;;;;2.90;2.30;;;16.50;94.60;;;;;;5109827;28;20616;-69
2023/05/15 08:30:03;;;;;;;2.33;2.07;;;16.30;94.00;;;;;;5109103;28;20628;-69
2023/05/15 08:32:29;;;;;;;1.10;1.10;;;16.10;93.90;;;;;;5109440;28;20748;-69
2023/05/15 08:34:57;;;;;;;2.20;1.93;;;15.90;94.90;;;;;;5109763;28;20621;-69
2023/05/15 08:37:23;;;;;;;2.53;2.33;;;16.20;95.30;;;;;;5109347;28;20647;-69
2023/05/15 08:39:50;;;;;;;2.03;1.93;;;16.40;95.00;;;;;;5108922;27;20626;-70
2023/05/15 08:42:21;;;;;;;2.10;1.90;;;16.60;94.10;;;;;;5108794;28;20644;-69
2023/05/15 08:44:48;;;;;;;2.03;1.80;;;16.40;94.20;;;;;;5109751;28;21182;-69
2023/05/15 08:47:16;;;;;;;2.67;2.43;;;16.30;94.60;;;;;;5109008;28;20643;-69
2023/05/15 08:49:52;;;;;;;2.73;2.07;;;16.70;95.50;;;;;;5107589;28;21189;-69
2023/05/15 08:52:19;;;;;;;3.30;2.60;;;17.10;95.60;;;;;;5108893;28;20643;-70
2023/05/15 08:54:46;;;;;;;1.83;1.70;;;16.90;93.80;;;;;;5109189;28;21016;-69
2023/05/15 08:57:15;;;;;;;1.93;1.83;;;16.90;94.40;;;;;;5109046;28;21004;-69
2023/05/15 08:59:42;;;;;;;4.27;2.23;;;16.60;92.80;;;;;;5100728;28;20986;-69
2023/05/15 09:02:09;;;;;;;2.30;2.07;;;16.80;93.80;;;;;;5109103;28;20653;-70
2023/05/15 09:04:37;;;;;;;1.63;1.53;;;17.00;93.80;;;;;;5109086;28;20647;-70
2023/05/15 09:07:05;;;;;;;2.07;1.87;;;17.20;92.80;;;;;;5108831;28;21237;-69
2023/05/15 09:09:34;;;;;;;2.00;1.83;;;17.50;93.50;;;;;;5108078;28;21131;-70
2023/05/15 09:12:01;;;;;;;2.20;2.00;;;17.80;93.30;;;;;;5108881;28;21214;-70
2023/05/15 09:14:28;;;;;;;7.80;2.20;;;17.80;92.60;;;;;;5108972;28;21106;-70
2023/05/15 09:16:55;;;;;;;2.23;2.03;;;18.10;93.50;;;;;;5108840;28;21139;-70
2023/05/15 09:19:22;;;;;;;2.13;1.83;;;18.40;92.10;;;;;;5108239;28;20615;-70
2023/05/15 09:21:50;;;;;;;2.70;2.00;;;18.50;91.70;;;;;;5108246;28;20654;-70
2023/05/15 09:24:20;;;;;;;2.30;2.20;;;18.70;91.90;;;;;;5108332;28;21145;-70
2023/05/15 09:26:48;;;;;;;1.97;1.87;;;18.60;90.50;;;;;;5108578;28;20643;-69
2023/05/15 09:29:18;;;;;;;3.13;2.10;;;18.40;90.70;;;;;;5108668;28;20715;-70
2023/05/15 09:31:46;;;;;;;2.30;2.10;;;18.50;91.30;;;;;;5108399;28;20651;-70
2023/05/15 09:34:14;;;;;;;2.93;2.60;;;18.40;91.40;;;;;;5108597;28;20620;-70
2023/05/15 09:36:43;;;;;;;2.10;1.90;;;18.40;90.80;;;;;;5108058;28;20647;-70
2023/05/15 09:39:12;;;;;;;2.13;1.93;;;18.90;91.60;;;;;;5108264;28;20624;-69
2023/05/15 09:41:43;;;;;;;2.90;2.70;;;18.50;90.70;;;;;;5107866;28;20701;-70
2023/05/15 09:44:19;;;;;;;2.90;2.70;;;18.10;90.80;;;;;;5108326;28;21234;-70
2023/05/15 09:46:46;;;;;;;2.17;2.07;;;17.50;91.20;;;;;;5108149;28;20643;-70
2023/05/15 09:49:14;;;;;;;2.63;2.33;;;17.30;91.00;;;;;;5106764;28;20632;-69
2023/05/15 09:51:41;;;;;;;4.20;2.50;;;17.20;91.20;;;;;;5108038;28;20696;-70
2023/05/15 09:54:16;;;;;;;2.47;2.00;;;17.30;91.40;;;;;;5108332;28;20620;-71
2023/05/15 09:56:44;;;;;;;2.20;2.00;;;17.20;91.40;;;;;;5101213;28;20728;-71
2023/05/15 09:59:14;;;;;;;2.87;2.67;;;17.10;90.70;;;;;;5108284;28;20685;-72
2023/05/15 10:01:44;;;;;;;2.93;2.60;;;17.30;91.40;;;;;;5107445;28;21037;-70
2023/05/15 10:04:12;;;;;;;1.83;1.73;;;17.70;92.00;;;;;;5108470;28;20663;-70
2023/05/15 10:06:40;;;;;;;2.00;1.90;;;17.60;90.70;;;;;;5107451;28;21197;-71
2023/05/15 10:09:09;;;;;;;2.03;1.67;;;17.20;90.30;;;;;;5107861;28;20627;-70
2023/05/15 10:11:38;;;;;;;2.40;2.20;;;16.90;91.50;;;;;;5107490;28;20654;-70
2023/05/15 10:14:07;;;;;;;2.57;2.37;;;16.60;91.00;;;;;;5108211;28;21440;-70
2023/05/15 10:16:35;;;;;;;2.50;2.10;;;16.40;91.60;;;;;;5108227;28;20997;-68
2023/05/15 10:19:04;;;;;;;2.83;2.33;;;16.70;92.20;;;;;;5108060;28;20631;-69
2023/05/15 10:21:32;;;;;;;2.47;2.37;;;17.10;91.30;;;;;;5107469;28;20681;-69
2023/05/15 10:24:00;;;;;;;4.77;2.30;;;17.50;90.90;;;;;;5107772;28;20671;-69
2023/05/15 10:26:35;;;;;;;1.80;1.70;;;17.70;90.20;;;;;;5107653;28;20649;-70
2023/05/15 10:29:05;;;;;;;1.90;1.80;;;18.10;86.60;;;;;;5107983;28;20623;-69
2023/05/15 10:31:33;;;;;;;1.93;1.70;;;18.40;84.70;;;;;;5107184;28;21244;-69
2023/05/15 10:34:01;;;;;;;1.63;1.53;;;18.90;87.60;;;;;;5108086;28;20620;-69
2023/05/15 10:36:28;;;;;;;2.73;2.33;;;18.90;86.00;;;;;;5107771;28;20748;-69
2023/05/15 10:38:55;;;;;;;3.27;1.73;;;18.60;86.00;;;;;;5107492;28;20628;-69
2023/05/15 10:41:24;;;;;;;1.83;1.63;;;18.50;88.10;;;;;;5106778;28;21336;-70
2023/05/15 10:43:53;;;;;;;2.00;1.90;;;18.50;87.90;;;;;;5107761;28;20620;-69
2023/05/15 10:46:22;;;;;;;1.90;1.80;;;18.80;87.50;;;;;;5107679;28;20651;-70
2023/05/15 10:48:49;;;;;;;1.67;1.57;;;19.30;86.90;;;;;;5108241;28;20661;-69
2023/05/15 10:51:17;;;;;;;2.40;2.20;;;19.60;82.40;;;;;;5105332;28;20640;-69
2023/05/15 10:53:44;;;;;;;1.50;1.40;;;19.60;80.40;;;;;;5107365;28;20623;-69
2023/05/15 10:56:16;;;;;;;2.33;2.13;;;19.40;83.70;;;;;;5107664;28;20647;-69
2023/05/15 10:58:47;;;;;;;2.23;2.13;;;19.90;81.40;;;;;;5100180;28;21067;-69
2023/05/15 11:01:31;;;;;;;2.20;1.97;;;20.20;77.50;;;;;;5107084;28;20851;-69
2023/05/15 11:04:09;;;;;;;2.20;2.10;;;19.60;75.20;;;;;;5101338;28;20619;-69
2023/05/15 11:06:37;;;;;;;2.10;1.90;;;19.50;80.20;;;;;;5107402;28;20951;-69
2023/05/15 11:09:38;;;;;;;2.00;1.80;;;19.10;77.50;;;;;;5107669;28;20624;-69
2023/05/15 11:12:07;;;;;;;2.40;2.20;;;18.40;78.30;;;;;;5100889;28;20642;-69
2023/05/15 11:14:36;;;;;;;2.17;1.80;;;18.80;76.80;;;;;;5107683;28;20649;-69
2023/05/15 11:17:06;;;;;;;2.30;2.10;;;19.30;79.50;;;;;;5107345;28;20981;-69
2023/05/15 11:19:57;;;;;;;1.87;1.77;;;19.20;79.80;;;;;;5109726;28;20651;-69
2023/05/15 11:22:32;;;;;;;1.57;1.37;;;19.00;76.10;;;;;;5100408;28;21223;-69
2023/05/15 11:25:00;;;;;;;1.53;1.40;;;19.30;77.00;;;;;;5110568;28;20642;-69
2023/05/15 11:27:29;;;;;;;2.03;1.83;;;19.50;70.20;;;;;;5111349;28;20635;-69
2023/05/15 11:30:06;;;;;;;1.53;1.43;;;20.10;74.40;;;;;;5110688;28;20641;-69
2023/05/15 11:32:48;;;;;;;1.70;1.60;;;20.60;72.10;;;;;;5110716;28;20662;-69
2023/05/15 11:35:20;;;;;;;1.93;1.53;;;20.20;72.60;;;;;;5102164;28;20616;-69
2023/05/15 11:37:48;;;;;;;1.37;1.27;;;20.70;76.60;;;;;;5111129;28;20627;-69
2023/05/15 11:40:20;;;;;;;1.70;1.60;;;21.30;73.80;;;;;;5109970;28;20977;-69
2023/05/15 11:43:03;;;;;;;1.70;1.60;;;21.90;71.20;;;;;;5110688;28;20966;-69
2023/05/15 11:45:31;;;;;;;1.60;1.47;;;21.80;71.20;;;;;;5102971;28;20668;-69
2023/05/15 11:48:02;;;;;;;1.80;1.70;;;20.80;68.10;;;;;;5110452;28;20616;-69
2023/05/15 11:50:31;;;;;;;1.50;1.40;;;20.80;74.10;;;;;;5108973;28;20647;-69
2023/05/15 11:52:57;;;;;;;2.43;1.70;;;21.90;70.00;;;;;;5110936;28;21062;-69
2023/05/15 11:55:25;;;;;;;1.57;1.20;;;23.00;69.10;;;;;;5110149;28;20645;-69
2023/05/15 11:57:52;;;;;;;1.70;1.60;;;24.10;65.40;;;;;;5110606;28;20625;-70
2023/05/15 12:00:20;;;;;;;1.77;1.57;;;24.20;56.70;;;;;;5109064;27;20635;-69
2023/05/15 12:02:47;;;;;;;1.40;1.30;;;24.90;57.70;;;;;;5110582;28;20620;-69
2023/05/15 12:05:15;;;;;;;1.57;1.47;;;24.90;56.90;;;;;;5110004;28;20663;-70
2023/05/15 12:07:45;;;;;;;1.53;1.43;;;24.60;55.10;;;;;;5110533;28;21176;-70
2023/05/15 12:10:13;;;;;;;1.90;1.80;;;24.70;56.20;;;;;;5109256;28;20625;-70
2023/05/15 12:12:41;;;;;;;1.70;1.60;;;24.50;57.60;;;;;;5110032;28;20631;-70
2023/05/15 12:15:10;;;;;;;1.50;1.40;;;26.20;56.40;;;;;;5109894;28;20620;-70
2023/05/15 12:17:37;;;;;;;1.67;1.57;;;27.30;56.40;;;;;;5110551;28;21139;-70
2023/05/15 12:20:08;;;;;;;1.77;1.67;;;28.10;52.50;;;;;;5109369;28;20635;-70
2023/05/15 12:22:41;;;;;;;2.13;2.03;;;26.80;52.70;;;;;;5110157;28;20626;-70
2023/05/15 12:25:10;;;;;;;2.00;1.90;;;26.00;55.80;;;;;;5101518;28;20670;-70
2023/05/15 12:27:38;;;;;;;2.50;2.30;;;25.00;56.40;;;;;;5110227;28;20652;-70
2023/05/15 12:30:06;;;;;;;2.17;2.07;;;24.50;58.20;;;;;;5108465;28;20634;-71
2023/05/15 12:32:35;;;;;;;1.80;1.70;;;24.00;57.40;;;;;;5109639;28;20628;-70
2023/05/15 12:35:02;;;;;;;2.10;1.90;;;23.80;58.50;;;;;;5109875;28;20814;-70
2023/05/15 12:37:32;;;;;;;2.60;2.10;;;22.80;58.80;;;;;;5109435;28;20650;-70
2023/05/15 12:40:06;;;;;;;2.23;2.10;;;22.00;58.60;;;;;;5108726;28;20627;-69
2023/05/15 12:42:39;;;;;;;2.07;1.97;;;22.30;63.20;;;;;;5109380;28;20646;-69
2023/05/15 12:45:13;;;;;;;1.80;1.70;;;24.30;62.70;;;;;;5109694;28;20658;-70
2023/05/15 12:47:40;;;;;;;2.70;1.93;;;25.20;54.40;;;;;;5109408;28;21192;-70
2023/05/15 12:50:14;;;;;;;1.50;1.40;;;23.90;53.90;;;;;;5107709;28;20626;-69
2023/05/15 12:52:45;;;;;;;1.90;1.70;;;23.40;54.20;;;;;;5109709;28;20627;-69
2023/05/15 12:55:17;;;;;;;1.60;1.50;;;23.70;56.40;;;;;;5109338;28;20982;-70
2023/05/15 12:57:44;;;;;;;2.30;2.10;;;24.10;57.70;;;;;;5109293;28;20631;-70